createdAt,value
2019-02-24T00:00:06.510Z,11.4
2019-02-24T00:00:56.448Z,11.4
2019-02-24T00:01:46.023Z,11.4
2019-02-24T00:02:36.537Z,11.4
2019-02-24T00:03:26.600Z,11.4
2019-02-24T00:04:16.883Z,11.4
2019-02-24T00:05:06.173Z,11.4
2019-02-24T00:05:56.502Z,11.4
2019-02-24T00:06:46.792Z,11.4
2019-02-24T00:07:37.380Z,11.4
2019-02-24T00:08:26.652Z,11.4
2019-02-24T00:09:17.530Z,11.4
2019-02-24T00:10:07.327Z,11.4
2019-02-24T00:10:57.681Z,11.4
2019-02-24T00:11:47.982Z,11.4
2019-02-24T00:12:37.992Z,11.4
2019-02-24T00:13:28.070Z,11.4
2019-02-24T00:14:17.030Z,11.4
2019-02-24T00:15:07.922Z,11.4
2019-02-24T00:15:57.679Z,11.4
2019-02-24T00:16:48.016Z,11.4
2019-02-24T00:17:37.775Z,11.4
2019-02-24T00:18:27.552Z,11.4
2019-02-24T00:19:17.359Z,11.4
2019-02-24T00:20:07.954Z,11.4
2019-02-24T00:20:58.572Z,11.4
2019-02-24T00:21:48.097Z,11.3
2019-02-24T00:22:38.397Z,11.4
2019-02-24T00:23:28.472Z,11.4
2019-02-24T00:24:17.957Z,11.3
2019-02-24T00:25:08.379Z,11.3
2019-02-24T00:25:57.870Z,11.4
2019-02-24T00:26:48.411Z,11.4
2019-02-24T00:27:38.284Z,11.4
2019-02-24T00:28:28.319Z,11.4
2019-02-24T00:29:18.418Z,11.4
2019-02-24T00:30:08.744Z,11.3
2019-02-24T00:30:57.666Z,11.3
2019-02-24T00:31:48.615Z,11.4
2019-02-24T00:32:40.186Z,11.3
2019-02-24T00:33:28.726Z,11.3
2019-02-24T00:34:18.706Z,11.3
2019-02-24T00:35:08.533Z,11.3
2019-02-24T00:35:58.872Z,11.3
2019-02-24T00:36:48.054Z,11.3
2019-02-24T00:37:39.472Z,11.4
2019-02-24T00:38:29.210Z,11.4
2019-02-24T00:39:19.072Z,11.4
2019-02-24T00:40:09.905Z,11.4
2019-02-24T00:40:59.376Z,11.4
2019-02-24T00:41:49.761Z,11.4
2019-02-24T00:42:39.833Z,11.4
2019-02-24T00:43:29.293Z,11.4
2019-02-24T00:44:19.660Z,11.3
2019-02-24T00:45:09.162Z,11.3
2019-02-24T00:45:59.711Z,11.3
2019-02-24T00:46:49.618Z,11.3
2019-02-24T00:47:40.165Z,11.3
2019-02-24T00:48:30.498Z,11.3
2019-02-24T00:49:20.258Z,11.3
2019-02-24T00:50:10.035Z,11.3
2019-02-24T00:51:00.350Z,11.3
2019-02-24T00:51:49.927Z,11.3
2019-02-24T00:52:39.921Z,11.3
2019-02-24T00:53:30.250Z,11.3
2019-02-24T00:54:20.092Z,11.3
2019-02-24T00:55:09.912Z,11.3
2019-02-24T00:56:00.471Z,11.3
2019-02-24T00:56:50.185Z,11.3
2019-02-24T00:57:39.787Z,11.3
2019-02-24T00:58:29.807Z,11.3
2019-02-24T00:59:20.450Z,11.3
2019-02-24T01:00:10.479Z,11.3
2019-02-24T01:01:00.010Z,11.3
2019-02-24T01:01:50.576Z,11.3
2019-02-24T01:02:40.930Z,11.3
2019-02-24T01:03:30.422Z,11.3
2019-02-24T01:04:20.505Z,11.3
2019-02-24T01:05:10.569Z,11.3
2019-02-24T01:06:00.602Z,11.3
2019-02-24T01:06:50.977Z,11.3
2019-02-24T01:07:40.224Z,11.3
2019-02-24T01:08:30.219Z,11.3
2019-02-24T01:09:20.571Z,11.3
2019-02-24T01:10:10.640Z,11.3
2019-02-24T01:11:01.281Z,11.3
2019-02-24T01:11:51.012Z,11.3
2019-02-24T01:12:40.816Z,11.2
2019-02-24T01:13:31.131Z,11.2
2019-02-24T01:14:21.244Z,11.3
2019-02-24T01:15:11.544Z,11.2
2019-02-24T01:16:01.841Z,11.2
2019-02-24T01:16:51.386Z,11.3
2019-02-24T01:17:41.697Z,11.2
2019-02-24T01:18:31.464Z,11.2
2019-02-24T01:19:21.054Z,11.2
2019-02-24T01:20:11.594Z,11.2
2019-02-24T01:21:02.273Z,11.2
2019-02-24T01:21:51.432Z,11.2
2019-02-24T01:22:42.042Z,11.2
2019-02-24T01:23:32.133Z,11.3
2019-02-24T01:24:21.601Z,11.2
2019-02-24T01:25:12.542Z,11.2
2019-02-24T01:26:01.697Z,11.3
2019-02-24T01:26:52.527Z,11.2
2019-02-24T01:27:43.171Z,11.2
2019-02-24T01:28:33.941Z,11.2
2019-02-24T01:29:22.990Z,11.2
2019-02-24T01:30:13.106Z,11.2
2019-02-24T01:31:02.058Z,11.2
2019-02-24T01:31:52.111Z,11.2
2019-02-24T01:32:43.196Z,11.2
2019-02-24T01:33:32.733Z,11.2
2019-02-24T01:34:23.360Z,11.1
2019-02-24T01:35:13.156Z,11.1
2019-02-24T01:36:02.348Z,11.1
2019-02-24T01:36:53.775Z,11.2
2019-02-24T01:37:43.305Z,11.2
2019-02-24T01:38:33.388Z,11.2
2019-02-24T01:39:23.098Z,11.1
2019-02-24T01:40:13.242Z,11.2
2019-02-24T01:41:03.203Z,11.1
2019-02-24T01:41:53.108Z,11.1
2019-02-24T01:42:43.613Z,11.1
2019-02-24T01:43:33.645Z,11.1
2019-02-24T01:44:23.000Z,11.1
2019-02-24T01:45:13.583Z,11.1
2019-02-24T01:46:03.301Z,11.1
2019-02-24T01:46:53.695Z,11.1
2019-02-24T01:47:43.213Z,11.1
2019-02-24T01:48:34.263Z,11.1
2019-02-24T01:49:23.862Z,11.1
2019-02-24T01:50:13.604Z,11.1
2019-02-24T01:51:04.458Z,11.1
2019-02-24T01:51:53.769Z,11.1
2019-02-24T01:52:44.140Z,11.1
2019-02-24T01:53:34.618Z,11.1
2019-02-24T01:54:24.734Z,11.1
2019-02-24T01:55:13.902Z,11.1
2019-02-24T01:56:03.714Z,11.1
2019-02-24T01:56:54.382Z,11.1
2019-02-24T01:57:44.624Z,11.1
2019-02-24T01:58:43.502Z,11.1
2019-02-24T01:59:25.401Z,11.1
2019-02-24T02:00:15.107Z,11.1
2019-02-24T02:01:05.146Z,11.1
2019-02-24T02:01:55.197Z,11.1
2019-02-24T02:02:45.003Z,11.1
2019-02-24T02:03:34.825Z,11.1
2019-02-24T02:04:24.556Z,11.1
2019-02-24T02:05:14.895Z,11.1
2019-02-24T02:06:05.219Z,11.1
2019-02-24T02:06:54.976Z,11.1
2019-02-24T02:07:45.939Z,11.1
2019-02-24T02:08:35.699Z,11.1
2019-02-24T02:09:25.844Z,11.1
2019-02-24T02:10:16.080Z,11.1
2019-02-24T02:11:05.109Z,11.1
2019-02-24T02:11:55.403Z,11.1
2019-02-24T02:12:45.947Z,11.1
2019-02-24T02:13:36.046Z,11.1
2019-02-24T02:14:25.804Z,11.1
2019-02-24T02:15:16.116Z,11.1
2019-02-24T02:16:06.451Z,11.1
2019-02-24T02:16:56.244Z,11.1
2019-02-24T02:17:45.783Z,11.1
2019-02-24T02:18:36.109Z,11.1
2019-02-24T02:19:26.450Z,11.1
2019-02-24T02:20:16.445Z,11.1
2019-02-24T02:21:06.530Z,11.1
2019-02-24T02:21:56.649Z,11
2019-02-24T02:22:46.670Z,11
2019-02-24T02:23:35.844Z,11
2019-02-24T02:24:26.475Z,11
2019-02-24T02:25:16.061Z,11
2019-02-24T02:26:05.835Z,11
2019-02-24T02:26:55.973Z,11
2019-02-24T02:27:46.547Z,11.1
2019-02-24T02:28:45.843Z,11
2019-02-24T02:29:25.495Z,11
2019-02-24T02:30:16.178Z,11.1
2019-02-24T02:31:07.077Z,11
2019-02-24T02:31:56.560Z,11.1
2019-02-24T02:32:46.830Z,11.1
2019-02-24T02:33:37.396Z,11
2019-02-24T02:34:26.887Z,11
2019-02-24T02:35:17.570Z,11
2019-02-24T02:36:07.057Z,11
2019-02-24T02:36:57.685Z,11
2019-02-24T02:37:47.408Z,11
2019-02-24T02:38:36.922Z,11
2019-02-24T02:39:27.878Z,11
2019-02-24T02:40:17.862Z,11
2019-02-24T02:41:07.674Z,11
2019-02-24T02:41:58.049Z,11
2019-02-24T02:42:47.775Z,11
2019-02-24T02:43:38.103Z,11
2019-02-24T02:44:28.164Z,11
2019-02-24T02:45:17.945Z,11
2019-02-24T02:46:08.008Z,11
2019-02-24T02:46:58.642Z,11
2019-02-24T02:47:48.424Z,11
2019-02-24T02:48:38.479Z,11
2019-02-24T02:49:28.237Z,11
2019-02-24T02:50:18.700Z,11
2019-02-24T02:51:08.685Z,11
2019-02-24T02:51:58.134Z,11
2019-02-24T02:52:48.787Z,11
2019-02-24T02:53:38.604Z,11
2019-02-24T02:54:28.060Z,11
2019-02-24T02:55:18.349Z,11
2019-02-24T02:56:08.794Z,11
2019-02-24T02:56:59.343Z,11
2019-02-24T02:57:49.346Z,10.9
2019-02-24T02:58:38.059Z,10.9
2019-02-24T02:59:29.476Z,10.9
2019-02-24T03:00:18.471Z,10.9
2019-02-24T03:01:08.721Z,10.9
2019-02-24T03:01:59.366Z,10.9
2019-02-24T03:02:49.131Z,10.9
2019-02-24T03:03:38.378Z,10.9
2019-02-24T03:04:29.248Z,10.9
2019-02-24T03:08:00.714Z,10.9
2019-02-24T03:08:51.324Z,10.9
2019-02-24T03:09:41.640Z,10.9
2019-02-24T03:10:32.099Z,10.9
2019-02-24T03:11:22.822Z,10.9
2019-02-24T03:12:12.034Z,10.9
2019-02-24T03:13:02.643Z,10.9
2019-02-24T03:13:52.084Z,10.9
2019-02-24T03:14:42.463Z,10.9
2019-02-24T03:15:31.382Z,10.9
2019-02-24T03:16:25.513Z,10.9
2019-02-24T03:17:12.378Z,10.9
2019-02-24T03:18:03.213Z,10.9
2019-02-24T03:18:53.031Z,10.9
2019-02-24T03:19:41.955Z,10.9
2019-02-24T03:20:32.834Z,10.9
2019-02-24T03:21:23.292Z,10.9
2019-02-24T03:22:12.933Z,10.9
2019-02-24T03:23:02.445Z,10.9
2019-02-24T03:23:53.110Z,10.9
2019-02-24T03:24:42.390Z,10.9
2019-02-24T03:25:33.507Z,10.9
2019-02-24T03:26:23.287Z,10.9
2019-02-24T03:27:13.066Z,10.9
2019-02-24T03:28:03.136Z,10.9
2019-02-24T03:28:52.882Z,10.9
2019-02-24T03:29:43.262Z,10.9
2019-02-24T03:30:33.455Z,10.9
2019-02-24T03:31:23.631Z,10.9
2019-02-24T03:32:13.810Z,10.9
2019-02-24T03:33:03.633Z,10.9
2019-02-24T03:33:54.061Z,10.9
2019-02-24T03:34:44.332Z,10.9
2019-02-24T03:35:33.605Z,10.9
2019-02-24T03:36:23.980Z,10.9
2019-02-24T03:37:13.982Z,10.9
2019-02-24T03:38:04.028Z,10.9
2019-02-24T03:38:54.354Z,10.8
2019-02-24T03:39:44.422Z,10.9
2019-02-24T03:40:33.925Z,10.9
2019-02-24T03:41:24.466Z,10.9
2019-02-24T03:42:14.847Z,10.9
2019-02-24T03:43:04.356Z,10.9
2019-02-24T03:43:54.824Z,10.9
2019-02-24T03:44:44.546Z,10.9
2019-02-24T03:45:34.537Z,10.9
2019-02-24T03:46:24.599Z,10.8
2019-02-24T03:47:14.354Z,10.8
2019-02-24T03:48:04.713Z,10.8
2019-02-24T03:48:55.320Z,10.9
2019-02-24T03:49:45.347Z,10.9
2019-02-24T03:50:34.337Z,10.8
2019-02-24T03:51:24.943Z,10.9
2019-02-24T03:52:15.251Z,10.9
2019-02-24T03:53:05.168Z,10.8
2019-02-24T03:53:55.369Z,10.8
2019-02-24T03:54:45.199Z,10.8
2019-02-24T03:55:35.491Z,10.8
2019-02-24T03:56:25.846Z,10.8
2019-02-24T03:57:15.348Z,10.8
2019-02-24T03:58:05.441Z,10.8
2019-02-24T03:58:55.439Z,10.8
2019-02-24T03:59:45.786Z,10.8
2019-02-24T04:00:35.592Z,10.8
2019-02-24T04:01:25.920Z,10.8
2019-02-24T04:02:16.208Z,10.8
2019-02-24T04:03:05.780Z,10.8
2019-02-24T04:03:56.098Z,10.8
2019-02-24T04:04:45.818Z,10.8
2019-02-24T04:05:36.182Z,10.8
2019-02-24T04:06:26.281Z,10.8
2019-02-24T04:07:16.008Z,10.8
2019-02-24T04:08:05.886Z,10.8
2019-02-24T04:08:56.458Z,10.8
2019-02-24T04:09:46.785Z,10.8
2019-02-24T04:10:35.675Z,10.8
2019-02-24T04:11:26.303Z,10.8
2019-02-24T04:12:16.347Z,10.8
2019-02-24T04:13:06.443Z,10.8
2019-02-24T04:13:55.714Z,10.8
2019-02-24T04:14:46.565Z,10.8
2019-02-24T04:15:36.292Z,10.8
2019-02-24T04:16:26.047Z,10.8
2019-02-24T04:17:16.395Z,10.8
2019-02-24T04:18:07.068Z,10.8
2019-02-24T04:18:56.450Z,10.8
2019-02-24T04:19:46.954Z,10.8
2019-02-24T04:20:36.923Z,10.8
2019-02-24T04:21:27.257Z,10.8
2019-02-24T04:22:17.320Z,10.8
2019-02-24T04:23:06.249Z,10.8
2019-02-24T04:23:57.432Z,10.8
2019-02-24T04:24:47.456Z,10.8
2019-02-24T04:25:36.727Z,10.8
2019-02-24T04:26:27.057Z,10.8
2019-02-24T04:27:19.439Z,10.8
2019-02-24T04:28:07.165Z,10.8
2019-02-24T04:28:57.999Z,10.8
2019-02-24T04:29:47.554Z,10.8
2019-02-24T04:30:36.877Z,10.8
2019-02-24T04:31:28.007Z,10.8
2019-02-24T04:32:17.973Z,10.8
2019-02-24T04:33:08.302Z,10.8
2019-02-24T04:33:57.824Z,10.7
2019-02-24T04:34:47.604Z,10.8
2019-02-24T04:35:37.751Z,10.8
2019-02-24T04:36:28.276Z,10.8
2019-02-24T04:37:17.751Z,10.8
2019-02-24T04:38:08.103Z,10.7
2019-02-24T04:38:57.869Z,10.8
2019-02-24T04:39:47.393Z,10.8
2019-02-24T04:40:38.551Z,10.8
2019-02-24T04:41:28.146Z,10.8
2019-02-24T04:42:18.678Z,10.8
2019-02-24T04:43:08.675Z,10.8
2019-02-24T04:43:59.067Z,10.8
2019-02-24T04:44:48.830Z,10.8
2019-02-24T04:45:38.591Z,10.8
2019-02-24T04:46:27.593Z,10.7
2019-02-24T04:47:19.290Z,10.7
2019-02-24T04:48:08.038Z,10.8
2019-02-24T04:48:58.368Z,10.8
2019-02-24T04:49:48.413Z,10.8
2019-02-24T04:50:38.563Z,10.8
2019-02-24T04:51:28.586Z,10.7
2019-02-24T04:52:18.561Z,10.7
2019-02-24T04:53:08.981Z,10.7
2019-02-24T04:53:58.130Z,10.7
2019-02-24T04:54:48.806Z,10.7
2019-02-24T04:55:39.848Z,10.7
2019-02-24T04:56:29.406Z,10.7
2019-02-24T04:57:19.408Z,10.7
2019-02-24T04:58:09.205Z,10.7
2019-02-24T04:58:59.520Z,10.7
2019-02-24T04:59:49.873Z,10.7
2019-02-24T05:00:39.627Z,10.7
2019-02-24T05:01:30.222Z,10.7
2019-02-24T05:02:20.024Z,10.7
2019-02-24T05:03:10.107Z,10.7
2019-02-24T05:03:59.864Z,10.6
2019-02-24T05:04:49.410Z,10.7
2019-02-24T05:05:40.023Z,10.7
2019-02-24T05:06:29.550Z,10.7
2019-02-24T05:07:19.615Z,10.7
2019-02-24T05:08:09.949Z,10.7
2019-02-24T05:09:00.030Z,10.6
2019-02-24T05:09:49.769Z,10.7
2019-02-24T05:10:39.842Z,10.7
2019-02-24T05:11:29.897Z,10.7
2019-02-24T05:12:20.210Z,10.7
2019-02-24T05:13:10.122Z,10.7
2019-02-24T05:14:00.059Z,10.7
2019-02-24T05:14:50.413Z,10.7
2019-02-24T05:15:39.895Z,10.6
2019-02-24T05:16:30.556Z,10.7
2019-02-24T05:17:20.878Z,10.7
2019-02-24T05:18:10.018Z,10.6
2019-02-24T05:19:00.940Z,10.7
2019-02-24T05:19:51.513Z,10.7
2019-02-24T05:20:41.527Z,10.6
2019-02-24T05:21:31.628Z,10.6
2019-02-24T05:22:21.127Z,10.6
2019-02-24T05:23:11.187Z,10.6
2019-02-24T05:24:01.512Z,10.6
2019-02-24T05:24:51.005Z,10.6
2019-02-24T05:25:41.408Z,10.6
2019-02-24T05:26:31.427Z,10.7
2019-02-24T05:27:21.155Z,10.6
2019-02-24T05:28:11.786Z,10.6
2019-02-24T05:29:01.635Z,10.6
2019-02-24T05:29:54.753Z,10.6
2019-02-24T05:30:41.741Z,10.6
2019-02-24T05:31:32.275Z,10.6
2019-02-24T05:32:21.555Z,10.6
2019-02-24T05:33:11.846Z,10.6
2019-02-24T05:34:01.899Z,10.6
2019-02-24T05:34:52.611Z,10.6
2019-02-24T05:35:42.305Z,10.6
2019-02-24T05:36:34.836Z,10.6
2019-02-24T05:37:22.452Z,10.6
2019-02-24T05:38:12.213Z,10.6
2019-02-24T05:39:02.579Z,10.6
2019-02-24T05:39:52.594Z,10.6
2019-02-24T05:40:42.342Z,10.6
2019-02-24T05:41:32.691Z,10.6
2019-02-24T05:42:23.021Z,10.6
2019-02-24T05:43:13.106Z,10.6
2019-02-24T05:44:02.594Z,10.6
2019-02-24T05:44:53.212Z,10.6
2019-02-24T05:45:42.509Z,10.6
2019-02-24T05:46:32.759Z,10.6
2019-02-24T05:47:22.331Z,10.6
2019-02-24T05:48:13.446Z,10.6
2019-02-24T05:49:03.194Z,10.6
2019-02-24T05:49:52.986Z,10.6
2019-02-24T05:50:42.734Z,10.6
2019-02-24T05:51:32.874Z,10.6
2019-02-24T05:52:23.142Z,10.6
2019-02-24T05:53:12.143Z,10.6
2019-02-24T05:54:02.746Z,10.7
2019-02-24T05:54:55.509Z,10.7
2019-02-24T05:55:43.619Z,10.7
2019-02-24T05:56:33.986Z,10.7
2019-02-24T05:57:23.508Z,10.7
2019-02-24T05:58:13.401Z,10.7
2019-02-24T05:59:03.868Z,10.7
2019-02-24T06:00:03.721Z,10.8
2019-02-24T06:00:43.430Z,10.8
2019-02-24T06:01:33.773Z,10.8
2019-02-24T06:02:24.128Z,10.8
2019-02-24T06:03:13.453Z,10.8
2019-02-24T06:06:02.083Z,10.8
2019-02-24T06:06:50.814Z,10.8
2019-02-24T06:07:42.203Z,10.8
2019-02-24T06:08:31.945Z,10.8
2019-02-24T06:09:22.013Z,10.8
2019-02-24T06:10:11.753Z,10.8
2019-02-24T06:11:02.420Z,10.8
2019-02-24T06:11:52.198Z,10.8
2019-02-24T06:12:42.780Z,10.8
2019-02-24T06:13:31.985Z,10.8
2019-02-24T06:14:21.507Z,10.8
2019-02-24T06:15:11.935Z,10.9
2019-02-24T06:16:01.628Z,10.9
2019-02-24T06:16:51.674Z,10.9
2019-02-24T06:17:42.841Z,11
2019-02-24T06:18:32.154Z,11
2019-02-24T06:19:22.181Z,11
2019-02-24T06:20:11.953Z,11
2019-02-24T06:21:02.279Z,11
2019-02-24T06:21:52.544Z,11.1
2019-02-24T06:22:41.812Z,11.1
2019-02-24T06:23:33.524Z,11.2
2019-02-24T06:24:22.490Z,11.3
2019-02-24T06:25:12.573Z,11.3
2019-02-24T06:26:03.672Z,11.3
2019-02-24T06:26:53.509Z,11.3
2019-02-24T06:27:43.497Z,11.3
2019-02-24T06:28:33.629Z,11.4
2019-02-24T06:29:23.074Z,11.4
2019-02-24T06:30:14.279Z,11.5
2019-02-24T06:31:03.778Z,11.5
2019-02-24T06:31:52.953Z,11.6
2019-02-24T06:32:43.316Z,11.6
2019-02-24T06:33:34.175Z,11.7
2019-02-24T06:34:23.134Z,11.8
2019-02-24T06:35:13.476Z,11.8
2019-02-24T06:36:03.016Z,11.8
2019-02-24T06:36:53.304Z,11.8
2019-02-24T06:37:43.907Z,11.8
2019-02-24T06:38:34.503Z,11.8
2019-02-24T06:39:23.759Z,11.8
2019-02-24T06:40:13.329Z,11.9
2019-02-24T06:41:05.822Z,11.9
2019-02-24T06:41:54.178Z,12
2019-02-24T06:42:44.242Z,12.1
2019-02-24T06:43:32.978Z,12.1
2019-02-24T06:44:24.646Z,12.1
2019-02-24T06:45:13.586Z,12.1
2019-02-24T06:46:03.378Z,12.1
2019-02-24T06:46:53.992Z,12.1
2019-02-24T06:47:44.968Z,12.1
2019-02-24T06:48:34.741Z,12.1
2019-02-24T06:49:23.951Z,12.1
2019-02-24T06:50:14.811Z,12.1
2019-02-24T06:51:04.604Z,12.1
2019-02-24T06:51:54.666Z,12.1
2019-02-24T06:52:45.160Z,12.1
2019-02-24T06:53:34.515Z,12.1
2019-02-24T06:54:24.746Z,12.1
2019-02-24T06:55:14.330Z,12.1
2019-02-24T06:56:04.337Z,12.1
2019-02-24T06:56:54.628Z,12.1
2019-02-24T06:57:45.278Z,12.1
2019-02-24T06:58:34.003Z,12.1
2019-02-24T06:59:24.093Z,12
2019-02-24T07:00:22.235Z,12.1
2019-02-24T07:01:04.517Z,12
2019-02-24T07:01:53.663Z,12
2019-02-24T07:02:45.099Z,12
2019-02-24T07:03:34.967Z,12.1
2019-02-24T07:06:01.070Z,12.1
2019-02-24T07:06:50.096Z,12.1
2019-02-24T07:07:40.952Z,12.1
2019-02-24T07:08:30.187Z,12.1
2019-02-24T07:09:22.755Z,12.1
2019-02-24T07:10:11.157Z,12.1
2019-02-24T07:11:00.365Z,12
2019-02-24T07:11:50.462Z,12.1
2019-02-24T07:12:40.844Z,12
2019-02-24T07:13:31.564Z,12
2019-02-24T07:14:20.320Z,12
2019-02-24T07:15:11.022Z,12
2019-02-24T07:16:00.726Z,12
2019-02-24T07:16:51.499Z,12
2019-02-24T07:17:42.375Z,12
2019-02-24T07:18:32.411Z,11.9
2019-02-24T07:19:21.619Z,11.9
2019-02-24T07:20:13.289Z,11.9
2019-02-24T07:21:03.106Z,11.9
2019-02-24T07:21:53.117Z,11.9
2019-02-24T07:22:42.584Z,11.9
2019-02-24T07:23:33.489Z,11.9
2019-02-24T07:24:23.319Z,11.9
2019-02-24T07:25:12.861Z,11.9
2019-02-24T07:26:03.121Z,11.9
2019-02-24T07:26:53.438Z,11.9
2019-02-24T07:27:43.226Z,11.9
2019-02-24T07:28:33.236Z,11.9
2019-02-24T07:29:23.886Z,11.9
2019-02-24T07:30:13.128Z,11.9
2019-02-24T07:31:04.061Z,11.9
2019-02-24T07:31:53.513Z,11.9
2019-02-24T07:32:43.856Z,11.9
2019-02-24T07:33:34.223Z,11.9
2019-02-24T07:34:23.471Z,11.9
2019-02-24T07:35:14.314Z,11.9
2019-02-24T07:36:03.822Z,11.9
2019-02-24T07:36:54.206Z,11.9
2019-02-24T07:37:43.388Z,11.9
2019-02-24T07:38:34.513Z,11.9
2019-02-24T07:39:24.593Z,11.9
2019-02-24T07:40:14.635Z,11.9
2019-02-24T07:41:04.141Z,11.9
2019-02-24T07:41:54.158Z,11.9
2019-02-24T07:42:44.790Z,11.9
2019-02-24T07:43:33.591Z,11.9
2019-02-24T07:44:23.873Z,11.9
2019-02-24T07:45:14.423Z,11.9
2019-02-24T07:46:03.675Z,11.9
2019-02-24T07:46:53.197Z,11.9
2019-02-24T07:47:44.567Z,11.9
2019-02-24T07:48:34.370Z,11.9
2019-02-24T07:49:24.447Z,11.9
2019-02-24T07:50:14.547Z,11.9
2019-02-24T07:51:04.285Z,11.9
2019-02-24T07:51:55.465Z,11.9
2019-02-24T07:52:44.430Z,11.9
2019-02-24T07:53:34.945Z,11.9
2019-02-24T07:54:25.305Z,11.9
2019-02-24T07:55:15.359Z,11.9
2019-02-24T07:56:04.369Z,11.9
2019-02-24T07:56:55.259Z,11.9
2019-02-24T07:57:45.376Z,11.9
2019-02-24T07:58:35.355Z,11.9
2019-02-24T07:59:25.152Z,11.9
2019-02-24T08:00:14.374Z,11.9
2019-02-24T08:01:05.007Z,11.9
2019-02-24T08:01:55.119Z,11.9
2019-02-24T08:02:45.192Z,11.9
2019-02-24T08:03:35.449Z,11.9
2019-02-24T08:04:25.785Z,11.9
2019-02-24T08:05:30.485Z,11.9
2019-02-24T08:06:05.882Z,11.9
2019-02-24T08:06:56.466Z,11.9
2019-02-24T08:07:46.216Z,11.9
2019-02-24T08:08:35.974Z,11.9
2019-02-24T08:09:25.829Z,11.9
2019-02-24T08:10:16.091Z,11.9
2019-02-24T08:11:06.415Z,11.9
2019-02-24T08:11:56.499Z,11.9
2019-02-24T08:12:46.536Z,11.9
2019-02-24T08:13:36.016Z,11.9
2019-02-24T08:14:26.681Z,11.9
2019-02-24T08:15:17.026Z,11.9
2019-02-24T08:16:07.094Z,11.9
2019-02-24T08:16:56.331Z,11.8
2019-02-24T08:17:46.649Z,11.9
2019-02-24T08:18:36.955Z,11.9
2019-02-24T08:19:27.008Z,11.9
2019-02-24T08:20:17.081Z,11.9
2019-02-24T08:21:08.658Z,11.9
2019-02-24T08:21:57.176Z,11.9
2019-02-24T08:22:47.476Z,11.9
2019-02-24T08:23:37.088Z,11.9
2019-02-24T08:24:29.095Z,11.9
2019-02-24T08:25:16.806Z,11.9
2019-02-24T08:26:07.763Z,11.9
2019-02-24T08:26:57.505Z,11.9
2019-02-24T08:27:47.830Z,11.9
2019-02-24T08:28:37.383Z,11.9
2019-02-24T08:29:27.178Z,11.9
2019-02-24T08:30:18.063Z,11.9
2019-02-24T08:31:07.803Z,11.9
2019-02-24T08:31:56.978Z,11.9
2019-02-24T08:32:47.927Z,11.9
2019-02-24T08:33:37.926Z,11.9
2019-02-24T08:34:27.727Z,11.9
2019-02-24T08:35:17.845Z,11.9
2019-02-24T08:36:07.874Z,11.9
2019-02-24T08:36:57.717Z,12
2019-02-24T08:37:47.951Z,12.1
2019-02-24T08:38:40.349Z,12.2
2019-02-24T08:39:28.133Z,12.3
2019-02-24T08:40:18.253Z,12.3
2019-02-24T08:41:08.235Z,12.4
2019-02-24T08:41:58.275Z,12.4
2019-02-24T08:42:48.845Z,12.5
2019-02-24T08:43:38.333Z,12.5
2019-02-24T08:44:31.007Z,12.6
2019-02-24T08:45:18.209Z,12.6
2019-02-24T08:46:08.283Z,12.6
2019-02-24T08:46:58.419Z,12.6
2019-02-24T08:47:48.031Z,12.6
2019-02-24T08:48:37.989Z,12.7
2019-02-24T08:49:28.527Z,12.7
2019-02-24T08:50:18.798Z,12.8
2019-02-24T08:51:09.179Z,12.7
2019-02-24T08:51:59.563Z,12.7
2019-02-24T08:52:49.252Z,12.7
2019-02-24T08:53:39.354Z,12.7
2019-02-24T08:54:29.369Z,12.8
2019-02-24T08:55:19.544Z,12.8
2019-02-24T08:56:09.314Z,12.8
2019-02-24T08:57:01.728Z,12.8
2019-02-24T08:57:49.580Z,12.8
2019-02-24T08:58:39.986Z,12.7
2019-02-24T08:59:29.767Z,12.7
2019-02-24T09:00:19.821Z,12.7
2019-02-24T09:01:09.829Z,12.8
2019-02-24T09:02:00.191Z,12.8
2019-02-24T09:02:49.756Z,12.8
2019-02-24T09:03:38.696Z,12.8
2019-02-24T09:04:30.076Z,12.8
2019-02-24T09:05:18.859Z,12.8
2019-02-24T09:06:10.436Z,12.8
2019-02-24T09:07:00.256Z,12.8
2019-02-24T09:07:50.569Z,12.8
2019-02-24T09:08:39.291Z,12.8
2019-02-24T09:09:30.104Z,12.8
2019-02-24T09:10:20.710Z,12.9
2019-02-24T09:11:10.863Z,12.9
2019-02-24T09:11:59.586Z,13
2019-02-24T09:12:50.345Z,13
2019-02-24T09:13:40.723Z,13.1
2019-02-24T09:14:31.043Z,13.1
2019-02-24T09:15:20.650Z,13.1
2019-02-24T09:16:11.248Z,13.1
2019-02-24T09:17:00.923Z,13.1
2019-02-24T09:17:50.793Z,13.1
2019-02-24T09:18:41.043Z,13.2
2019-02-24T09:19:31.148Z,13.2
2019-02-24T09:20:21.260Z,13.2
2019-02-24T09:21:10.700Z,13.2
2019-02-24T09:22:01.063Z,13.2
2019-02-24T09:22:51.363Z,13.2
2019-02-24T09:23:41.072Z,13.2
2019-02-24T09:24:30.070Z,13.3
2019-02-24T09:25:20.740Z,13.2
2019-02-24T09:26:11.542Z,13.2
2019-02-24T09:27:01.592Z,13.2
2019-02-24T09:27:51.917Z,13.2
2019-02-24T09:28:41.407Z,13.2
2019-02-24T09:29:30.779Z,13.2
2019-02-24T09:30:21.312Z,13.1
2019-02-24T09:31:11.137Z,13.2
2019-02-24T09:32:00.867Z,13.2
2019-02-24T09:32:51.469Z,13.2
2019-02-24T09:33:42.367Z,13.2
2019-02-24T09:34:32.395Z,13.2
2019-02-24T09:35:21.173Z,13.2
2019-02-24T09:36:11.918Z,13.2
2019-02-24T09:37:01.692Z,13.2
2019-02-24T09:37:52.363Z,13.2
2019-02-24T09:38:42.439Z,13.2
2019-02-24T09:39:32.132Z,13.2
2019-02-24T09:40:22.187Z,13.2
2019-02-24T09:41:12.272Z,13.2
2019-02-24T09:42:02.454Z,13.1
2019-02-24T09:42:52.088Z,13.1
2019-02-24T09:43:42.697Z,13.1
2019-02-24T09:44:32.287Z,13.1
2019-02-24T09:45:23.101Z,13.1
2019-02-24T09:46:13.197Z,13.1
2019-02-24T09:47:03.199Z,13.2
2019-02-24T09:47:55.359Z,13.2
2019-02-24T09:48:43.343Z,13.3
2019-02-24T09:49:33.214Z,13.3
2019-02-24T09:50:23.416Z,13.3
2019-02-24T09:51:13.224Z,13.3
2019-02-24T09:52:03.004Z,13.3
2019-02-24T09:52:52.024Z,13.3
2019-02-24T09:53:43.711Z,13.3
2019-02-24T09:54:33.708Z,13.3
2019-02-24T09:55:23.782Z,13.3
2019-02-24T09:56:13.819Z,13.3
2019-02-24T09:57:03.046Z,13.3
2019-02-24T09:57:53.746Z,13.3
2019-02-24T09:58:44.010Z,13.3
2019-02-24T09:59:33.508Z,13.4
2019-02-24T10:00:26.314Z,13.4
2019-02-24T10:01:19.718Z,13.4
2019-02-24T10:02:04.208Z,13.3
2019-02-24T10:02:53.986Z,13.3
2019-02-24T10:03:43.498Z,13.3
2019-02-24T10:04:34.119Z,13.3
2019-02-24T10:07:01.935Z,13.3
2019-02-24T10:07:51.104Z,13.3
2019-02-24T10:08:42.273Z,13.4
2019-02-24T10:09:32.036Z,13.4
2019-02-24T10:10:22.107Z,13.4
2019-02-24T10:11:14.285Z,13.4
2019-02-24T10:12:02.290Z,13.4
2019-02-24T10:12:52.663Z,13.4
2019-02-24T10:13:42.170Z,13.4
2019-02-24T10:14:32.437Z,13.4
2019-02-24T10:15:22.525Z,13.4
2019-02-24T10:16:12.768Z,13.4
2019-02-24T10:17:02.067Z,13.4
2019-02-24T10:17:52.394Z,13.4
2019-02-24T10:18:42.397Z,13.4
2019-02-24T10:19:33.621Z,13.4
2019-02-24T10:20:23.067Z,13.4
2019-02-24T10:21:12.440Z,13.4
2019-02-24T10:22:02.610Z,13.4
2019-02-24T10:22:53.241Z,13.4
2019-02-24T10:23:42.750Z,13.4
2019-02-24T10:24:33.114Z,13.4
2019-02-24T10:25:23.142Z,13.4
2019-02-24T10:26:12.609Z,13.4
2019-02-24T10:27:03.514Z,13.5
2019-02-24T10:27:53.288Z,13.5
2019-02-24T10:28:43.143Z,13.5
2019-02-24T10:29:33.409Z,13.5
2019-02-24T10:30:23.749Z,13.5
2019-02-24T10:31:22.457Z,13.5
2019-02-24T10:32:02.684Z,13.6
2019-02-24T10:32:53.715Z,13.6
2019-02-24T10:33:43.458Z,13.5
2019-02-24T10:34:33.462Z,13.5
2019-02-24T10:35:22.706Z,13.5
2019-02-24T10:36:13.900Z,13.5
2019-02-24T10:37:04.226Z,13.5
2019-02-24T10:37:53.979Z,13.5
2019-02-24T10:38:44.041Z,13.5
2019-02-24T10:39:38.303Z,13.5
2019-02-24T10:40:23.916Z,13.5
2019-02-24T10:41:13.926Z,13.5
2019-02-24T10:42:04.581Z,13.5
2019-02-24T10:42:53.748Z,13.6
2019-02-24T10:43:44.116Z,13.5
2019-02-24T10:44:34.463Z,13.6
2019-02-24T10:45:24.228Z,13.6
2019-02-24T10:46:16.693Z,13.6
2019-02-24T10:47:07.196Z,13.6
2019-02-24T10:47:53.771Z,13.6
2019-02-24T10:48:44.231Z,13.6
2019-02-24T10:49:35.068Z,13.6
2019-02-24T10:50:24.563Z,13.6
2019-02-24T10:51:14.350Z,13.6
2019-02-24T10:52:04.451Z,13.6
2019-02-24T10:52:55.419Z,13.6
2019-02-24T10:53:45.325Z,13.6
2019-02-24T10:54:35.165Z,13.6
2019-02-24T10:55:25.490Z,13.6
2019-02-24T10:56:15.227Z,13.6
2019-02-24T10:57:04.999Z,13.6
2019-02-24T10:57:55.355Z,13.6
2019-02-24T10:58:45.422Z,13.6
2019-02-24T10:59:35.783Z,13.6
2019-02-24T11:00:25.448Z,13.6
2019-02-24T11:01:15.571Z,13.6
2019-02-24T11:02:05.398Z,13.6
2019-02-24T11:02:55.675Z,13.6
2019-02-24T11:03:45.742Z,13.6
2019-02-24T11:04:35.825Z,13.6
2019-02-24T11:05:25.920Z,13.6
2019-02-24T11:06:15.370Z,13.6
2019-02-24T11:07:05.717Z,13.6
2019-02-24T11:07:55.757Z,13.6
2019-02-24T11:08:46.120Z,13.6
2019-02-24T11:09:35.824Z,13.6
2019-02-24T11:10:26.452Z,13.6
2019-02-24T11:11:16.258Z,13.6
2019-02-24T11:12:08.751Z,13.6
2019-02-24T11:12:56.067Z,13.7
2019-02-24T11:13:46.449Z,13.7
2019-02-24T11:14:36.462Z,13.7
2019-02-24T11:15:25.324Z,13.7
2019-02-24T11:16:15.917Z,13.7
2019-02-24T11:17:20.229Z,13.6